Time;durP1;ratioP1;P1;durP2;ratioP2;P2;SDS_P1;SDS_P2;PMS_P1;PMS_P2;Temp;Humidity;BMP_temperature;BMP_pressure;BME280_temperature;BME280_humidity;BME280_pressure;Samples;Min_cycle;Max_cycle;Signal;HPM_P1;HPM_P2
2023/03/30 00:00:22;;;;;;;4.72;3.05;;;11.80;97.00;;;;;;5036509;28;20045;-68
2023/03/30 00:02:52;;;;;;;3.92;3.10;;;11.70;97.30;;;;;;5036849;28;20043;-67
2023/03/30 00:05:19;;;;;;;8.65;3.17;;;11.70;97.80;;;;;;5038323;28;20049;-68
2023/03/30 00:07:45;;;;;;;6.50;3.20;;;11.80;98.10;;;;;;5042000;28;20064;-67
2023/03/30 00:10:14;;;;;;;5.93;2.80;;;11.70;98.10;;;;;;5045981;28;20037;-68
2023/03/30 00:12:40;;;;;;;5.30;3.20;;;11.70;98.40;;;;;;5044020;28;20032;-68
2023/03/30 00:15:08;;;;;;;5.88;3.05;;;11.70;98.60;;;;;;5039692;28;20033;-68
2023/03/30 00:17:35;;;;;;;4.57;3.10;;;11.70;98.80;;;;;;5039599;28;20879;-68
2023/03/30 00:20:01;;;;;;;3.40;2.75;;;11.60;99.10;;;;;;5037220;28;20036;-68
2023/03/30 00:22:27;;;;;;;5.85;3.25;;;11.70;99.30;;;;;;5039107;28;20032;-67
2023/03/30 00:24:53;;;;;;;7.95;3.80;;;11.60;99.30;;;;;;5039080;28;20033;-68
2023/03/30 00:27:19;;;;;;;3.95;2.67;;;11.60;99.30;;;;;;5038874;28;20512;-68
2023/03/30 00:29:45;;;;;;;4.05;2.80;;;11.60;99.20;;;;;;5031426;28;20094;-68
2023/03/30 00:32:12;;;;;;;3.58;2.95;;;11.60;99.60;;;;;;5028133;28;20033;-65
2023/03/30 00:34:37;;;;;;;5.22;3.08;;;11.50;99.40;;;;;;5038035;28;20749;-68
2023/03/30 00:37:04;;;;;;;3.28;2.45;;;11.60;99.50;;;;;;5036779;28;20025;-68
2023/03/30 00:39:29;;;;;;;4.20;2.70;;;11.50;99.60;;;;;;5038555;28;20037;-68
2023/03/30 00:41:55;;;;;;;3.50;2.63;;;11.50;99.80;;;;;;5031823;28;20047;-69
2023/03/30 00:44:58;;;;;;;4.68;3.42;;;11.50;99.90;;;;;;5035291;28;20600;-68
2023/03/30 00:47:25;;;;;;;6.22;3.65;;;11.50;99.90;;;;;;5036904;28;20493;-68
2023/03/30 00:49:51;;;;;;;3.88;3.20;;;11.50;99.90;;;;;;5028690;28;20103;-68
2023/03/30 00:52:23;;;;;;;5.40;3.50;;;11.50;99.90;;;;;;5036523;28;20033;-68
2023/03/30 00:54:51;;;;;;;3.58;3.00;;;11.50;99.90;;;;;;5028279;28;20908;-68
2023/03/30 00:57:22;;;;;;;8.27;3.80;;;11.50;99.90;;;;;;5037425;28;20067;-68
2023/03/30 00:59:51;;;;;;;5.97;3.15;;;11.40;99.90;;;;;;5033766;28;20041;-68
2023/03/30 01:02:20;;;;;;;5.15;3.00;;;11.40;99.90;;;;;;5034281;28;20479;-68
2023/03/30 01:04:47;;;;;;;5.60;3.30;;;11.50;99.90;;;;;;5037229;28;20386;-68
2023/03/30 01:07:14;;;;;;;5.20;3.45;;;11.50;99.90;;;;;;5038382;28;20044;-68
2023/03/30 01:09:41;;;;;;;4.90;3.30;;;11.50;99.90;;;;;;5035164;28;20041;-68
2023/03/30 01:12:08;;;;;;;3.40;2.85;;;11.50;99.90;;;;;;5035700;28;20035;-68
2023/03/30 01:14:35;;;;;;;4.95;3.35;;;11.50;99.90;;;;;;5038741;28;20123;-70
2023/03/30 01:17:24;;;;;;;4.80;2.88;;;11.50;99.90;;;;;;5037753;28;20056;-68
2023/03/30 01:20:11;;;;;;;5.03;2.88;;;11.50;99.90;;;;;;5037792;28;20032;-68
2023/03/30 01:23:11;;;;;;;7.65;3.58;;;11.40;99.90;;;;;;5040532;28;20037;-68
2023/03/30 01:25:45;;;;;;;7.07;3.00;;;11.40;99.90;;;;;;5054810;28;20033;-68
2023/03/30 01:28:31;;;;;;;5.18;3.40;;;11.40;99.90;;;;;;5037722;28;20033;-68
2023/03/30 01:31:13;;;;;;;4.90;3.47;;;11.40;99.90;;;;;;5029452;28;20044;-69
2023/03/30 01:33:38;;;;;;;3.55;3.05;;;11.40;99.90;;;;;;5039281;28;20107;-68
2023/03/30 01:36:37;;;;;;;4.20;3.13;;;11.40;99.90;;;;;;5040892;28;20767;-68
2023/03/30 01:39:12;;;;;;;5.07;3.30;;;11.30;99.90;;;;;;5040538;28;20080;-68
2023/03/30 01:41:46;;;;;;;4.68;3.60;;;11.30;99.90;;;;;;5030015;28;20029;-69
2023/03/30 01:44:51;;;;;;;5.32;3.17;;;11.30;99.90;;;;;;5040736;28;20120;-68
2023/03/30 01:47:21;;;;;;;4.07;3.22;;;11.30;99.90;;;;;;5040099;28;20031;-68
2023/03/30 01:50:11;;;;;;;7.03;3.08;;;11.30;99.90;;;;;;5039253;28;20047;-68
2023/03/30 01:52:44;;;;;;;5.25;3.30;;;11.30;99.90;;;;;;5041139;28;20955;-69
2023/03/30 01:55:19;;;;;;;4.90;3.17;;;11.30;99.90;;;;;;5039885;28;20055;-67
2023/03/30 01:57:55;;;;;;;5.00;3.08;;;11.30;99.90;;;;;;5037036;28;20029;-68
2023/03/30 02:00:22;;;;;;;;;;;11.30;99.90;;;;;;5040562;28;20033;-67
2023/03/30 02:02:54;;;;;;;3.72;2.95;;;11.30;99.90;;;;;;5032418;28;19915;-68
2023/03/30 02:05:22;;;;;;;5.28;3.20;;;11.30;99.90;;;;;;5036559;28;20045;-67
2023/03/30 02:08:07;;;;;;;5.65;3.63;;;11.40;99.90;;;;;;5029232;28;20033;-67
2023/03/30 02:10:35;;;;;;;6.75;3.58;;;11.30;99.90;;;;;;5039430;28;20120;-67
2023/03/30 02:13:04;;;;;;;5.45;3.17;;;11.30;99.90;;;;;;5040990;28;20086;-68
2023/03/30 02:15:37;;;;;;;4.43;3.67;;;11.40;99.90;;;;;;5042235;28;20039;-68
2023/03/30 02:18:03;;;;;;;5.15;3.60;;;11.30;99.90;;;;;;5040493;28;20114;-68
2023/03/30 02:20:31;;;;;;;4.30;3.33;;;11.40;99.90;;;;;;5041315;28;20385;-68
2023/03/30 02:22:58;;;;;;;7.90;3.67;;;11.40;99.90;;;;;;5028966;28;20041;-68
2023/03/30 02:25:26;;;;;;;7.40;3.53;;;11.40;99.90;;;;;;5041440;28;20036;-67
2023/03/30 02:27:53;;;;;;;5.30;3.65;;;11.40;99.90;;;;;;5040411;28;20101;-68
2023/03/30 02:30:19;;;;;;;5.35;3.42;;;11.40;99.90;;;;;;5031071;28;20037;-68
2023/03/30 02:32:55;;;;;;;4.57;3.10;;;11.40;99.90;;;;;;5038567;28;20136;-67
2023/03/30 02:35:52;;;;;;;5.13;3.33;;;11.30;99.90;;;;;;5038671;28;20109;-67
2023/03/30 02:38:24;;;;;;;4.60;3.78;;;11.40;99.90;;;;;;5035913;28;20041;-68
2023/03/30 02:41:08;;;;;;;6.47;3.55;;;11.30;99.90;;;;;;5032298;28;20182;-68
2023/03/30 02:43:40;;;;;;;4.75;3.30;;;11.40;99.90;;;;;;5037303;28;20853;-67
2023/03/30 02:46:16;;;;;;;6.97;3.80;;;11.30;99.90;;;;;;5033292;28;20029;-67
2023/03/30 02:49:08;;;;;;;5.50;3.58;;;11.30;99.90;;;;;;5032102;28;20425;-68
2023/03/30 02:51:48;;;;;;;4.70;3.35;;;11.30;99.90;;;;;;5036739;28;20040;-67
2023/03/30 02:54:46;;;;;;;6.57;3.50;;;11.30;99.90;;;;;;5040064;28;20124;-68
2023/03/30 02:57:46;;;;;;;7.25;3.50;;;11.30;99.90;;;;;;5040126;28;20068;-68
2023/03/30 03:00:41;;;;;;;4.05;3.13;;;11.30;99.90;;;;;;5035291;28;20506;-67
2023/03/30 03:03:30;;;;;;;9.23;3.38;;;11.30;99.90;;;;;;5037736;28;20673;-68
2023/03/30 03:06:01;;;;;;;4.57;3.05;;;11.30;99.90;;;;;;5040604;28;20037;-68
2023/03/30 03:08:34;;;;;;;4.03;3.13;;;11.20;99.90;;;;;;5037623;28;20033;-67
2023/03/30 03:11:01;;;;;;;6.35;3.58;;;11.20;99.90;;;;;;5032756;28;20041;-67
2023/03/30 03:13:29;;;;;;;4.38;3.38;;;11.30;99.90;;;;;;5031616;28;20033;-67
2023/03/30 03:15:55;;;;;;;6.22;3.35;;;11.20;99.90;;;;;;5038073;28;20040;-68
2023/03/30 03:18:22;;;;;;;5.30;3.53;;;11.20;99.90;;;;;;5040724;28;20147;-68
2023/03/30 03:20:49;;;;;;;4.82;3.47;;;11.10;99.90;;;;;;5038335;28;20041;-68
2023/03/30 03:23:16;;;;;;;6.75;3.67;;;11.10;99.90;;;;;;5038985;28;20961;-67
2023/03/30 03:25:47;;;;;;;4.20;3.60;;;11.10;99.90;;;;;;5029050;28;20847;-67
2023/03/30 03:28:15;;;;;;;5.85;3.58;;;11.20;99.90;;;;;;5039385;28;20040;-68
2023/03/30 03:30:48;;;;;;;5.65;3.47;;;11.20;99.90;;;;;;5038950;28;20262;-67
2023/03/30 03:33:20;;;;;;;4.28;3.20;;;11.20;99.90;;;;;;5028968;28;20028;-67
2023/03/30 03:36:07;;;;;;;;;;;11.20;99.90;;;;;;5038913;28;20146;-68
2023/03/30 03:38:38;;;;;;;6.18;3.20;;;11.20;99.90;;;;;;5036652;28;19913;-68
2023/03/30 03:41:05;;;;;;;6.78;3.22;;;11.20;99.90;;;;;;5040074;28;20024;-68
2023/03/30 03:43:31;;;;;;;5.63;3.72;;;11.10;99.90;;;;;;5032009;28;20757;-67
2023/03/30 03:45:57;;;;;;;4.65;3.30;;;11.10;99.90;;;;;;5031155;28;20114;-68
2023/03/30 03:48:23;;;;;;;4.72;3.40;;;11.10;99.90;;;;;;5030849;28;20101;-67
2023/03/30 03:50:51;;;;;;;4.53;3.47;;;11.00;99.90;;;;;;5038285;28;20067;-67
2023/03/30 03:53:18;;;;;;;7.35;3.20;;;11.00;99.90;;;;;;5031108;28;20120;-67
2023/03/30 03:55:45;;;;;;;5.13;3.30;;;10.90;99.90;;;;;;5033605;28;20033;-68
2023/03/30 03:58:12;;;;;;;5.88;3.25;;;10.90;99.90;;;;;;5035346;28;20076;-67
2023/03/30 04:00:39;;;;;;;7.10;3.33;;;10.90;99.90;;;;;;5033247;28;20041;-67
2023/03/30 04:03:05;;;;;;;5.40;3.25;;;10.90;99.90;;;;;;5037691;28;20048;-67
2023/03/30 04:05:31;;;;;;;5.72;3.17;;;10.90;99.90;;;;;;5038793;28;20052;-68
2023/03/30 04:07:57;;;;;;;5.22;3.30;;;11.00;99.90;;;;;;5029582;28;20752;-68
2023/03/30 04:10:23;;;;;;;5.85;3.40;;;11.10;99.90;;;;;;5038345;28;20511;-67
2023/03/30 04:12:57;;;;;;;7.22;3.58;;;11.00;99.90;;;;;;5036970;28;20075;-68
2023/03/30 04:15:41;;;;;;;4.85;3.38;;;11.10;99.90;;;;;;5037385;28;20047;-68
2023/03/30 04:18:32;;;;;;;5.68;3.28;;;11.10;99.90;;;;;;5034895;28;20033;-68
2023/03/30 04:21:22;;;;;;;5.78;3.63;;;11.00;99.90;;;;;;5032070;28;20239;-68
2023/03/30 04:24:13;;;;;;;8.43;3.47;;;11.00;99.90;;;;;;5036809;28;20025;-68
2023/03/30 04:27:08;;;;;;;6.93;3.55;;;11.00;99.90;;;;;;5025661;28;20037;-68
2023/03/30 04:30:01;;;;;;;7.05;3.55;;;11.00;99.90;;;;;;5050154;28;20817;-68
2023/03/30 04:32:37;;;;;;;6.45;3.65;;;10.90;99.90;;;;;;5046603;28;20043;-67
2023/03/30 04:35:21;;;;;;;6.55;3.55;;;10.90;99.90;;;;;;5040727;28;20051;-68
2023/03/30 04:38:06;;;;;;;6.45;3.20;;;10.80;99.90;;;;;;5041937;28;20611;-67
2023/03/30 04:40:51;;;;;;;4.13;3.22;;;10.80;99.90;;;;;;5042722;28;20044;-68
2023/03/30 04:43:37;;;;;;;5.18;3.55;;;10.80;99.90;;;;;;5052051;28;20033;-68
2023/03/30 04:46:23;;;;;;;;;;;10.80;99.90;;;;;;5028103;28;20152;-67
2023/03/30 04:49:08;;;;;;;8.90;3.63;;;10.80;99.90;;;;;;5042502;28;19923;-67
2023/03/30 04:52:02;;;;;;;6.63;3.88;;;10.80;99.90;;;;;;5039393;28;20033;-67
2023/03/30 04:54:51;;;;;;;5.85;3.60;;;10.70;99.90;;;;;;5046331;28;20041;-68
2023/03/30 04:57:20;;;;;;;5.95;4.05;;;10.70;99.90;;;;;;5041719;28;20231;-68
2023/03/30 05:00:12;;;;;;;6.38;3.78;;;10.70;99.90;;;;;;5014612;28;20041;-67
2023/03/30 05:03:08;;;;;;;6.70;3.75;;;10.70;99.90;;;;;;4996199;28;20045;-67
2023/03/30 05:06:06;;;;;;;3.90;3.13;;;10.70;99.90;;;;;;5024871;28;20041;-67
2023/03/30 05:08:51;;;;;;;6.68;3.40;;;10.80;99.90;;;;;;5040188;28;20127;-67
2023/03/30 05:11:52;;;;;;;4.82;3.70;;;10.80;99.90;;;;;;5011133;28;20042;-67
2023/03/30 05:14:41;;;;;;;6.18;3.25;;;10.80;99.90;;;;;;5035918;28;20398;-67
2023/03/30 05:17:45;;;;;;;4.25;3.28;;;10.90;99.90;;;;;;5033084;28;20029;-68
2023/03/30 05:20:32;;;;;;;5.57;3.30;;;10.80;99.90;;;;;;5016346;28;20525;-68
2023/03/30 05:23:16;;;;;;;6.57;3.80;;;10.90;99.90;;;;;;5039612;28;20134;-68
2023/03/30 05:26:05;;;;;;;6.85;3.67;;;10.90;99.90;;;;;;5033592;28;20111;-67
2023/03/30 05:28:43;;;;;;;6.45;3.67;;;10.90;99.90;;;;;;5043843;28;20041;-67
2023/03/30 05:31:18;;;;;;;5.25;3.75;;;10.90;99.90;;;;;;5038802;28;20144;-68
2023/03/30 05:33:55;;;;;;;7.20;4.05;;;10.80;99.90;;;;;;5036416;28;20916;-68
2023/03/30 05:36:31;;;;;;;5.63;3.63;;;10.90;99.90;;;;;;5033891;28;20098;-68
2023/03/30 05:39:17;;;;;;;4.35;3.67;;;10.80;99.90;;;;;;5035191;28;20063;-68
2023/03/30 05:42:02;;;;;;;5.25;3.13;;;10.80;99.90;;;;;;5039339;28;20177;-67
2023/03/30 05:44:51;;;;;;;7.53;3.40;;;10.90;99.90;;;;;;5004162;28;20101;-68
2023/03/30 05:47:56;;;;;;;7.18;4.13;;;10.90;99.90;;;;;;4967074;28;20114;-68
2023/03/30 05:50:35;;;;;;;7.50;3.35;;;10.90;99.90;;;;;;5026037;28;20068;-67
2023/03/30 05:53:08;;;;;;;6.32;3.35;;;11.00;99.90;;;;;;5029781;28;20037;-67
2023/03/30 05:55:56;;;;;;;8.00;3.20;;;11.00;99.90;;;;;;5036019;28;20699;-67
2023/03/30 05:58:28;;;;;;;7.93;3.25;;;11.00;99.90;;;;;;5038297;28;21123;-67
2023/03/30 06:01:13;;;;;;;6.18;3.50;;;11.00;99.90;;;;;;5036741;28;20520;-68
2023/03/30 06:03:41;;;;;;;6.47;3.53;;;11.00;99.90;;;;;;5029122;28;20095;-68
2023/03/30 06:06:09;;;;;;;10.15;3.63;;;11.00;99.90;;;;;;5043721;28;20057;-67
2023/03/30 06:08:35;;;;;;;6.80;3.80;;;11.10;99.90;;;;;;5038172;28;20126;-67
2023/03/30 06:11:04;;;;;;;10.25;3.45;;;11.10;99.90;;;;;;5038859;28;20125;-67
2023/03/30 06:13:41;;;;;;;6.10;3.00;;;11.20;99.90;;;;;;5044663;28;20359;-67
2023/03/30 06:16:08;;;;;;;4.40;3.40;;;11.30;99.90;;;;;;5046470;28;20759;-67
2023/03/30 06:18:34;;;;;;;5.38;3.63;;;11.30;99.90;;;;;;5038486;28;20064;-68
2023/03/30 06:21:07;;;;;;;5.63;3.45;;;11.50;99.90;;;;;;5042704;28;20032;-67
2023/03/30 06:23:45;;;;;;;8.95;3.65;;;11.50;99.90;;;;;;5038967;28;20093;-68
2023/03/30 06:26:16;;;;;;;8.10;3.97;;;11.60;99.90;;;;;;5036205;28;20040;-68
2023/03/30 06:28:43;;;;;;;5.72;3.55;;;11.70;99.90;;;;;;5034908;28;20029;-68
2023/03/30 06:31:10;;;;;;;4.63;3.38;;;11.80;99.90;;;;;;5038606;28;20041;-67
2023/03/30 06:33:37;;;;;;;7.63;3.50;;;11.90;99.90;;;;;;5033604;28;20848;-68
2023/03/30 06:36:11;;;;;;;4.35;3.30;;;12.00;99.90;;;;;;5041962;28;20025;-68
2023/03/30 06:38:38;;;;;;;8.18;3.95;;;12.00;99.90;;;;;;5032352;28;20025;-68
2023/03/30 06:41:08;;;;;;;7.60;4.05;;;12.10;99.90;;;;;;5039478;28;20060;-68
2023/03/30 06:43:37;;;;;;;5.30;3.35;;;12.20;99.90;;;;;;5035530;28;20082;-68
2023/03/30 06:46:13;;;;;;;7.60;3.90;;;12.20;99.90;;;;;;5040069;28;20036;-67
2023/03/30 06:48:43;;;;;;;5.72;3.67;;;12.20;99.80;;;;;;5032801;28;20087;-68
2023/03/30 06:51:28;;;;;;;3.88;3.40;;;12.20;99.80;;;;;;5041452;28;20970;-68
2023/03/30 06:53:56;;;;;;;6.75;3.00;;;12.30;99.90;;;;;;5036724;28;20029;-68
2023/03/30 06:56:22;;;;;;;5.20;2.72;;;12.30;99.80;;;;;;5034541;28;20029;-68
2023/03/30 06:59:04;;;;;;;3.83;2.30;;;12.30;99.90;;;;;;5034048;28;20025;-68
2023/03/30 07:01:31;;;;;;;3.92;2.97;;;12.40;99.90;;;;;;5032311;28;20120;-68
2023/03/30 07:04:22;;;;;;;7.60;2.88;;;12.70;99.60;;;;;;5007203;28;20080;-68
2023/03/30 07:07:18;;;;;;;6.10;2.97;;;12.90;99.00;;;;;;5035909;28;20036;-69
2023/03/30 07:09:44;;;;;;;8.88;3.20;;;13.20;98.40;;;;;;5037709;28;20790;-68
2023/03/30 07:12:10;;;;;;;4.72;2.40;;;13.40;97.90;;;;;;5039005;28;20028;-68
2023/03/30 07:14:36;;;;;;;3.92;2.63;;;13.50;97.40;;;;;;5030572;28;20025;-68
2023/03/30 07:17:02;;;;;;;4.85;2.70;;;13.70;97.00;;;;;;5030632;28;20032;-68
2023/03/30 07:19:28;;;;;;;3.78;2.80;;;14.10;96.80;;;;;;5020759;28;20151;-68
2023/03/30 07:21:55;;;;;;;4.38;2.75;;;14.40;95.80;;;;;;5039745;28;20287;-68
2023/03/30 07:24:25;;;;;;;5.50;2.42;;;14.60;95.00;;;;;;5029207;28;20746;-67
2023/03/30 07:26:50;;;;;;;5.32;3.00;;;14.80;94.80;;;;;;5038849;28;20116;-68
2023/03/30 07:29:16;;;;;;;6.65;2.70;;;14.80;94.50;;;;;;5035170;28;20124;-68
2023/03/30 07:31:45;;;;;;;7.47;2.30;;;15.10;94.10;;;;;;5030228;28;20033;-68
2023/03/30 07:34:12;;;;;;;5.40;2.95;;;15.10;93.60;;;;;;5034767;28;20032;-68
2023/03/30 07:36:44;;;;;;;4.50;2.55;;;15.40;93.40;;;;;;5027198;28;20029;-68
2023/03/30 07:39:11;;;;;;;5.07;1.98;;;15.70;92.70;;;;;;5037043;28;20788;-68
2023/03/30 07:41:39;;;;;;;4.90;2.22;;;16.00;92.70;;;;;;5028780;28;20501;-68
2023/03/30 07:44:05;;;;;;;5.57;2.58;;;16.30;91.60;;;;;;5033972;28;20029;-68
2023/03/30 07:46:31;;;;;;;3.53;1.75;;;16.30;91.00;;;;;;5034188;28;20553;-69
2023/03/30 07:48:57;;;;;;;3.03;1.83;;;16.30;89.80;;;;;;5042104;28;20539;-68
2023/03/30 07:51:23;;;;;;;5.80;2.28;;;16.20;90.40;;;;;;5032710;28;20029;-68
2023/03/30 07:54:02;;;;;;;13.98;2.58;;;16.20;90.50;;;;;;5037341;28;20406;-68
2023/03/30 07:56:39;;;;;;;2.90;2.08;;;16.20;90.20;;;;;;5041110;28;20060;-68
2023/03/30 07:59:07;;;;;;;6.15;2.13;;;16.40;88.30;;;;;;5040057;28;20894;-69
2023/03/30 08:01:35;;;;;;;4.95;2.17;;;16.80;88.70;;;;;;5033067;28;20022;-68
2023/03/30 08:04:17;;;;;;;6.93;2.33;;;17.00;86.50;;;;;;5032092;28;20032;-69
2023/03/30 08:06:44;;;;;;;4.60;1.80;;;17.30;85.20;;;;;;5031480;28;20047;-69
2023/03/30 08:09:10;;;;;;;7.07;2.03;;;17.20;85.00;;;;;;5038854;28;20064;-69
2023/03/30 08:11:37;;;;;;;4.78;1.98;;;16.90;86.70;;;;;;5052426;28;20053;-68
2023/03/30 08:14:04;;;;;;;5.68;1.92;;;16.70;87.80;;;;;;5038490;28;20048;-69
2023/03/30 08:16:30;;;;;;;6.32;2.53;;;16.50;87.50;;;;;;5036552;28;20250;-69
2023/03/30 08:18:56;;;;;;;5.43;2.10;;;16.40;88.10;;;;;;5038118;28;20091;-68
2023/03/30 08:21:24;;;;;;;3.63;2.30;;;16.40;89.90;;;;;;5040005;28;20052;-68
2023/03/30 08:23:58;;;;;;;6.68;2.30;;;16.40;88.80;;;;;;5037458;28;20041;-69
2023/03/30 08:26:25;;;;;;;4.40;2.13;;;16.50;90.10;;;;;;5036285;28;20429;-68
2023/03/30 08:28:51;;;;;;;4.15;1.77;;;16.60;88.80;;;;;;5040160;28;20560;-68
2023/03/30 08:31:17;;;;;;;4.00;1.95;;;16.60;89.00;;;;;;5034315;28;20128;-69
2023/03/30 08:33:43;;;;;;;4.90;1.60;;;16.60;88.20;;;;;;5038270;28;20047;-69
2023/03/30 08:36:11;;;;;;;5.47;1.80;;;16.60;88.70;;;;;;5041817;28;20123;-69
2023/03/30 08:38:38;;;;;;;3.05;1.77;;;16.60;89.10;;;;;;5040582;28;20037;-69
2023/03/30 08:41:56;;;;;;;7.60;1.98;;;16.60;89.10;;;;;;5039622;28;20037;-69
2023/03/30 08:44:27;;;;;;;5.38;1.98;;;16.70;88.20;;;;;;5037461;28;20040;-68
2023/03/30 08:46:53;;;;;;;4.25;1.48;;;16.50;88.20;;;;;;5039398;28;20037;-68
2023/03/30 08:49:20;;;;;;;8.18;2.20;;;16.40;89.70;;;;;;5045414;28;20041;-68
2023/03/30 08:51:48;;;;;;;3.38;1.85;;;16.30;90.00;;;;;;5047445;28;20056;-69
2023/03/30 08:54:17;;;;;;;7.40;2.00;;;16.10;89.40;;;;;;5043286;28;20819;-69
2023/03/30 08:56:46;;;;;;;6.43;2.10;;;16.00;90.40;;;;;;5039967;28;20086;-68
2023/03/30 08:59:39;;;;;;;5.80;1.70;;;16.00;90.30;;;;;;5039830;28;20037;-69
2023/03/30 09:02:22;;;;;;;2.90;1.50;;;15.90;90.70;;;;;;5010670;28;20032;-68
2023/03/30 09:05:21;;;;;;;6.35;1.95;;;15.80;91.20;;;;;;5035880;28;20043;-69
2023/03/30 09:07:58;;;;;;;3.72;1.85;;;15.80;91.10;;;;;;5036727;28;20033;-69
2023/03/30 09:10:27;;;;;;;7.07;1.70;;;15.90;90.90;;;;;;5036485;28;20489;-68
2023/03/30 09:13:01;;;;;;;3.38;1.45;;;16.00;91.20;;;;;;5038154;28;20032;-69
2023/03/30 09:15:42;;;;;;;5.15;1.67;;;16.10;91.10;;;;;;5039007;28;20033;-69
2023/03/30 09:18:31;;;;;;;6.15;1.90;;;16.30;90.80;;;;;;5037472;28;20036;-69
2023/03/30 09:21:04;;;;;;;3.83;1.77;;;16.50;90.60;;;;;;5037110;28;20553;-69
2023/03/30 09:23:31;;;;;;;4.25;1.73;;;16.40;90.40;;;;;;5038045;28;20119;-68
2023/03/30 09:26:03;;;;;;;2.60;1.58;;;16.40;90.50;;;;;;5038223;28;20978;-69
2023/03/30 09:28:44;;;;;;;2.65;1.60;;;16.50;90.50;;;;;;5039167;28;20087;-68
2023/03/30 09:31:35;;;;;;;7.35;2.13;;;16.40;90.30;;;;;;5039197;28;20536;-68
2023/03/30 09:34:38;;;;;;;8.88;1.75;;;16.40;90.70;;;;;;5034341;28;20044;-69
2023/03/30 09:37:15;;;;;;;5.68;1.83;;;16.30;90.50;;;;;;5037352;28;20020;-68
2023/03/30 09:39:41;;;;;;;5.70;1.70;;;16.30;91.20;;;;;;5041927;28;20044;-69
2023/03/30 09:42:32;;;;;;;3.28;1.52;;;16.30;91.30;;;;;;5044350;28;20479;-69
2023/03/30 09:45:07;;;;;;;6.47;1.65;;;16.40;90.90;;;;;;5040201;28;20039;-69
2023/03/30 09:47:35;;;;;;;7.10;2.15;;;16.30;91.30;;;;;;5040843;28;20047;-69
2023/03/30 09:50:08;;;;;;;7.15;1.88;;;16.30;91.60;;;;;;5043149;28;20032;-69
2023/03/30 09:53:00;;;;;;;4.85;1.95;;;16.30;91.40;;;;;;5040399;28;20776;-69
2023/03/30 09:55:34;;;;;;;6.85;1.90;;;16.50;91.70;;;;;;5047092;28;20068;-68
2023/03/30 09:58:12;;;;;;;5.07;1.95;;;16.60;91.50;;;;;;5040849;28;20037;-69
2023/03/30 10:00:39;;;;;;;4.32;1.85;;;16.70;90.50;;;;;;5041400;28;20037;-68
2023/03/30 10:03:06;;;;;;;4.28;1.92;;;16.50;91.00;;;;;;5041552;28;20179;-68
2023/03/30 10:05:34;;;;;;;6.35;2.20;;;16.40;91.10;;;;;;5035937;28;20037;-67
2023/03/30 10:08:11;;;;;;;6.05;2.35;;;16.40;91.70;;;;;;5034865;28;20047;-67
2023/03/30 10:10:39;;;;;;;12.15;2.70;;;16.50;91.20;;;;;;5041607;28;20029;-68
2023/03/30 10:13:13;;;;;;;4.45;2.08;;;16.40;91.00;;;;;;5038631;28;20037;-68
2023/03/30 10:15:43;;;;;;;8.57;2.03;;;16.20;91.40;;;;;;5041357;28;20045;-67
2023/03/30 10:18:18;;;;;;;8.20;3.20;;;16.20;92.10;;;;;;5040058;28;20296;-67
2023/03/30 10:21:02;;;;;;;9.63;1.60;;;16.20;92.20;;;;;;5041663;28;20131;-68
2023/03/30 10:23:42;;;;;;;6.32;2.03;;;16.30;92.10;;;;;;5038936;28;20048;-67
2023/03/30 10:26:19;;;;;;;5.15;1.70;;;16.30;92.00;;;;;;5041264;28;20037;-68
2023/03/30 10:28:51;;;;;;;9.00;2.13;;;16.20;92.30;;;;;;5042336;28;20497;-68
2023/03/30 10:31:17;;;;;;;10.57;2.17;;;16.00;92.30;;;;;;5037825;28;20060;-68
2023/03/30 10:33:44;;;;;;;4.68;1.45;;;16.10;93.00;;;;;;5040560;28;20742;-68
2023/03/30 10:36:13;;;;;;;4.88;2.33;;;16.20;92.80;;;;;;5041929;28;20073;-68
2023/03/30 10:38:40;;;;;;;4.68;2.28;;;16.40;92.60;;;;;;5040389;28;20079;-70
2023/03/30 10:41:21;;;;;;;7.43;2.13;;;16.70;91.90;;;;;;5040952;28;20703;-67
2023/03/30 10:43:48;;;;;;;10.88;2.65;;;16.90;91.30;;;;;;5031626;28;20037;-68
2023/03/30 10:46:21;;;;;;;9.60;2.38;;;17.10;90.70;;;;;;5037091;28;20054;-68
2023/03/30 10:49:10;;;;;;;4.45;2.10;;;16.90;91.10;;;;;;5037937;28;20046;-68
2023/03/30 10:52:10;;;;;;;9.88;2.00;;;16.90;91.30;;;;;;5039657;28;20063;-69
2023/03/30 10:54:39;;;;;;;6.35;2.28;;;16.80;91.10;;;;;;5040066;28;20039;-68
2023/03/30 10:57:20;;;;;;;6.45;2.50;;;16.70;91.10;;;;;;5040097;28;20037;-69
2023/03/30 11:00:09;;;;;;;10.38;2.10;;;16.70;91.60;;;;;;5039501;28;20057;-68
2023/03/30 11:02:48;;;;;;;6.28;1.92;;;16.80;92.00;;;;;;5039539;28;20048;-68
2023/03/30 11:05:32;;;;;;;8.52;2.03;;;17.10;91.60;;;;;;5036678;28;20052;-68
2023/03/30 11:07:58;;;;;;;7.75;2.38;;;17.20;90.70;;;;;;5039176;28;20469;-69
2023/03/30 11:10:39;;;;;;;7.60;2.47;;;16.90;91.20;;;;;;5039979;28;20053;-69
2023/03/30 11:13:10;;;;;;;11.13;2.50;;;16.90;91.90;;;;;;5039147;28;20029;-69
2023/03/30 11:15:42;;;;;;;7.57;2.08;;;16.80;91.50;;;;;;5035449;28;20111;-68
2023/03/30 11:18:32;;;;;;;8.00;2.33;;;16.70;92.00;;;;;;5040531;28;20063;-68
2023/03/30 11:21:32;;;;;;;10.35;2.65;;;16.70;91.80;;;;;;5042588;28;20144;-68
2023/03/30 11:24:13;;;;;;;7.28;2.20;;;16.80;92.10;;;;;;5040907;28;20276;-69
2023/03/30 11:27:12;;;;;;;8.65;2.67;;;17.10;91.90;;;;;;5039275;28;20037;-70
2023/03/30 11:30:08;;;;;;;3.33;1.77;;;16.90;92.00;;;;;;5038509;28;20029;-69
2023/03/30 11:32:46;;;;;;;6.50;2.42;;;17.20;92.70;;;;;;5037937;28;20516;-68
2023/03/30 11:35:20;;;;;;;7.03;2.28;;;17.40;92.10;;;;;;5038253;28;20039;-69
2023/03/30 11:38:01;;;;;;;7.45;2.13;;;17.50;91.50;;;;;;5038732;28;20591;-69
2023/03/30 11:40:38;;;;;;;6.03;2.17;;;17.80;92.40;;;;;;5037813;28;20084;-69
2023/03/30 11:43:04;;;;;;;5.45;2.05;;;18.00;91.50;;;;;;5040815;28;20033;-69
2023/03/30 11:45:39;;;;;;;5.53;2.15;;;18.20;91.40;;;;;;5041303;28;20040;-69
2023/03/30 11:48:46;;;;;;;5.63;2.00;;;18.40;91.40;;;;;;5040624;28;20040;-68
2023/03/30 11:51:34;;;;;;;7.55;2.60;;;18.70;90.00;;;;;;5014911;28;20124;-69
2023/03/30 11:54:25;;;;;;;6.75;2.38;;;18.70;88.70;;;;;;5039475;28;20059;-67
2023/03/30 11:57:06;;;;;;;5.30;1.98;;;18.70;90.60;;;;;;5039773;28;20040;-68
2023/03/30 11:59:47;;;;;;;6.20;2.00;;;18.80;88.10;;;;;;5040898;28;20739;-71
2023/03/30 12:02:23;;;;;;;4.55;1.98;;;19.00;90.10;;;;;;5037362;28;20033;-70
2023/03/30 12:04:53;;;;;;;;;;;19.10;87.80;;;;;;5040241;28;20165;-70
2023/03/30 12:07:51;;;;;;;7.43;2.10;;;19.10;87.30;;;;;;5038025;28;19917;-70
2023/03/30 12:10:27;;;;;;;8.30;1.83;;;19.20;86.40;;;;;;5039273;28;20897;-70
2023/03/30 12:12:54;;;;;;;;;;;19.40;86.20;;;;;;5035983;28;20685;-70
2023/03/30 12:15:39;;;;;;;3.25;1.92;;;19.50;84.20;;;;;;5038198;28;19912;-70
2023/03/30 12:18:16;;;;;;;5.82;1.70;;;19.50;85.30;;;;;;5039408;28;20139;-68
2023/03/30 12:21:06;;;;;;;9.57;2.63;;;19.40;85.70;;;;;;5038253;28;20028;-70
2023/03/30 12:24:00;;;;;;;9.35;2.10;;;19.40;84.30;;;;;;5038683;28;20044;-70
2023/03/30 12:26:33;;;;;;;8.13;1.73;;;19.40;84.00;;;;;;5038874;28;20145;-70
2023/03/30 12:29:18;;;;;;;4.95;1.83;;;19.50;82.50;;;;;;5039350;28;20087;-69
2023/03/30 12:32:01;;;;;;;6.38;2.28;;;19.40;84.10;;;;;;5036707;28;20036;-70
2023/03/30 12:34:36;;;;;;;4.10;2.08;;;19.40;82.70;;;;;;5039616;28;20048;-70
2023/03/30 12:37:08;;;;;;;7.30;2.60;;;19.40;84.50;;;;;;5040458;28;20090;-70
2023/03/30 12:39:58;;;;;;;7.72;1.90;;;19.40;83.30;;;;;;5039285;28;20037;-70
2023/03/30 12:42:33;;;;;;;8.32;2.05;;;19.50;83.70;;;;;;5037954;28;20047;-70
2023/03/30 12:45:04;;;;;;;6.18;2.15;;;19.50;81.80;;;;;;5039225;28;20301;-71
2023/03/30 12:48:07;;;;;;;9.18;1.90;;;19.40;83.00;;;;;;5039152;28;20032;-70
2023/03/30 12:51:07;;;;;;;7.55;1.92;;;19.30;81.90;;;;;;5038510;28;20120;-67
2023/03/30 12:54:07;;;;;;;5.68;2.22;;;19.50;83.20;;;;;;5038427;28;20850;-67
2023/03/30 12:56:47;;;;;;;4.18;1.67;;;19.50;80.20;;;;;;5044470;28;20028;-68
2023/03/30 12:59:19;;;;;;;9.20;1.85;;;19.50;80.90;;;;;;5040725;28;20025;-68
2023/03/30 13:02:00;;;;;;;22.83;15.15;;;19.60;81.50;;;;;;5036093;28;20392;-69
2023/03/30 13:04:31;;;;;;;7.18;3.83;;;19.60;81.80;;;;;;5039106;28;20119;-68
2023/03/30 13:07:02;;;;;;;3.83;2.72;;;19.60;80.40;;;;;;5039719;28;20396;-65
2023/03/30 13:09:35;;;;;;;7.47;3.70;;;19.70;80.10;;;;;;5035872;28;20037;-69
2023/03/30 13:12:00;;;;;;;8.25;2.50;;;19.50;79.90;;;;;;5051289;28;20112;-67
2023/03/30 13:14:42;;;;;;;7.63;2.53;;;19.20;80.20;;;;;;5050187;28;20135;-66
2023/03/30 13:17:13;;;;;;;8.70;2.33;;;19.00;79.30;;;;;;5048070;28;20040;-69
2023/03/30 13:19:43;;;;;;;9.68;2.08;;;18.80;79.60;;;;;;5042784;28;20052;-66
2023/03/30 13:22:11;;;;;;;5.57;2.30;;;18.70;81.20;;;;;;5044710;28;20036;-69
2023/03/30 13:24:57;;;;;;;9.57;2.65;;;18.60;83.50;;;;;;5046498;28;20040;-67
2023/03/30 13:27:32;;;;;;;7.97;2.92;;;18.50;83.60;;;;;;5044819;28;20158;-67
2023/03/30 13:30:02;;;;;;;4.70;1.30;;;18.40;86.80;;;;;;5045652;28;20039;-67
2023/03/30 13:32:31;;;;;;;9.68;1.77;;;18.10;88.00;;;;;;5042587;28;20045;-67